createdAt,value
2018-12-05T00:01:53.820Z,71.28
2018-12-05T00:04:23.275Z,71.28
2018-12-05T00:06:52.804Z,71.46
2018-12-05T00:09:22.329Z,71.50
2018-12-05T00:11:51.833Z,71.45
2018-12-05T00:14:21.349Z,71.69
2018-12-05T00:16:50.810Z,71.87
2018-12-05T00:19:20.301Z,72.06
2018-12-05T00:21:49.813Z,72.10
2018-12-05T00:24:19.268Z,72.09
2018-12-05T00:26:48.805Z,72.15
2018-12-05T00:29:18.279Z,71.88
2018-12-05T00:31:47.785Z,71.94
2018-12-05T00:34:17.257Z,72.04
2018-12-05T00:36:46.749Z,72.12
2018-12-05T00:39:16.213Z,72.30
2018-12-05T00:41:45.725Z,72.48
2018-12-05T00:44:15.175Z,72.44
2018-12-05T00:46:44.677Z,72.35
2018-12-05T00:49:14.325Z,72.13
2018-12-05T00:51:43.859Z,72.43
2018-12-05T00:54:13.318Z,72.39
2018-12-05T00:56:42.833Z,72.25
2018-12-05T00:59:12.325Z,72.43
2018-12-05T01:01:41.860Z,72.35
2018-12-05T01:04:11.397Z,72.21
2018-12-05T01:06:40.894Z,72.18
2018-12-05T01:09:12.924Z,72.25
2018-12-05T01:11:42.733Z,72.08
2018-12-05T01:14:12.240Z,72.31
2018-12-05T01:16:41.773Z,72.53
2018-12-05T01:19:11.278Z,72.34
2018-12-05T01:21:40.745Z,72.37
2018-12-05T01:24:10.236Z,72.85
2018-12-05T01:26:39.747Z,72.38
2018-12-05T01:29:09.255Z,72.49
2018-12-05T01:31:38.913Z,72.46
2018-12-05T01:34:08.373Z,72.50
2018-12-05T01:36:37.913Z,72.30
2018-12-05T01:39:08.401Z,72.34
2018-12-05T01:41:37.961Z,72.43
2018-12-05T01:44:07.581Z,72.13
2018-12-05T01:46:37.100Z,72.12
2018-12-05T01:49:06.559Z,72.14
2018-12-05T01:51:36.093Z,72.15
2018-12-05T01:54:05.633Z,72.07
2018-12-05T01:56:35.100Z,72.07
2018-12-05T01:59:04.621Z,72.11
2018-12-05T02:01:34.173Z,71.96
2018-12-05T02:04:03.720Z,71.80
2018-12-05T02:06:33.382Z,71.68
2018-12-05T02:09:03.117Z,71.86
2018-12-05T02:11:32.662Z,72.10
2018-12-05T02:14:02.148Z,72.08
2018-12-05T02:16:31.650Z,71.83
2018-12-05T02:19:01.116Z,72.02
2018-12-05T02:21:30.627Z,71.97
2018-12-05T02:24:00.086Z,71.86
2018-12-05T02:26:29.584Z,71.63
2018-12-05T02:28:59.049Z,71.84
2018-12-05T02:31:28.546Z,71.96
2018-12-05T02:33:58.007Z,72.05
2018-12-05T02:36:27.556Z,72.41
2018-12-05T02:38:57.016Z,72.16
2018-12-05T02:41:26.615Z,72.36
2018-12-05T02:43:56.105Z,72.31
2018-12-05T02:46:25.589Z,72.19
2018-12-05T02:48:55.036Z,71.99
2018-12-05T02:51:24.546Z,72.16
2018-12-05T02:53:54.008Z,72.16
2018-12-05T02:56:23.537Z,72.10
2018-12-05T02:58:53.014Z,72.30
2018-12-05T03:01:22.516Z,72.32
2018-12-05T03:03:52.048Z,73.19
2018-12-05T03:06:21.504Z,73.90
2018-12-05T03:08:51.006Z,76.59
2018-12-05T03:11:20.473Z,76.08
2018-12-05T03:13:49.982Z,75.20
2018-12-05T03:16:19.501Z,74.64
2018-12-05T03:18:48.983Z,75.40
2018-12-05T03:21:18.441Z,74.87
2018-12-05T03:23:47.972Z,74.51
2018-12-05T03:26:17.434Z,74.29
2018-12-05T03:28:46.892Z,74.09
2018-12-05T03:31:16.397Z,74.14
2018-12-05T03:33:45.854Z,74.12
2018-12-05T03:36:15.364Z,74.36
2018-12-05T03:38:44.818Z,74.29
2018-12-05T03:41:14.316Z,74.92
2018-12-05T03:43:43.782Z,74.01
2018-12-05T03:46:13.284Z,73.94
2018-12-05T03:48:42.785Z,73.78
2018-12-05T03:51:12.437Z,73.99
2018-12-05T03:53:41.900Z,74.03
2018-12-05T03:56:11.541Z,74.18
2018-12-05T03:58:41.005Z,74.20
2018-12-05T04:01:10.521Z,73.58
2018-12-05T04:03:40.013Z,73.72
2018-12-05T04:06:09.491Z,73.79
2018-12-05T04:08:38.983Z,73.87
2018-12-05T04:11:08.444Z,73.95
2018-12-05T04:13:37.940Z,73.95
2018-12-05T04:16:07.380Z,73.74
2018-12-05T04:18:36.880Z,73.61
2018-12-05T04:21:06.437Z,73.87
2018-12-05T04:23:35.897Z,73.87
2018-12-05T04:26:05.433Z,73.74
2018-12-05T04:28:34.918Z,73.68
2018-12-05T04:31:04.433Z,73.44
2018-12-05T04:33:33.878Z,73.41
2018-12-05T04:36:03.362Z,73.46
2018-12-05T04:38:32.841Z,73.08
2018-12-05T04:41:02.336Z,73.06
2018-12-05T04:43:31.833Z,73.04
2018-12-05T04:46:01.298Z,72.94
2018-12-05T04:48:30.800Z,73.80
2018-12-05T04:51:00.266Z,73.75
2018-12-05T04:53:29.801Z,73.68
2018-12-05T04:55:59.248Z,73.84
2018-12-05T04:58:28.739Z,73.90
2018-12-05T05:00:58.237Z,73.83
2018-12-05T05:03:27.712Z,73.62
2018-12-05T05:05:57.226Z,73.78
2018-12-05T05:08:26.684Z,73.65
2018-12-05T05:10:56.210Z,74.41
2018-12-05T05:13:25.686Z,74.34
2018-12-05T05:15:55.182Z,74.86
2018-12-05T05:18:24.639Z,74.86
2018-12-05T05:20:54.138Z,74.70
2018-12-05T05:23:23.583Z,74.96
2018-12-05T05:25:53.093Z,74.93
2018-12-05T05:28:22.596Z,74.70
2018-12-05T05:30:52.188Z,74.69
2018-12-05T05:33:21.645Z,74.71
2018-12-05T05:35:51.160Z,74.69
2018-12-05T05:38:20.633Z,74.74
2018-12-05T05:40:50.141Z,74.50
2018-12-05T05:43:19.642Z,74.24
2018-12-05T05:45:49.274Z,74.33
2018-12-05T05:48:18.729Z,74.64
2018-12-05T05:50:48.253Z,74.24
2018-12-05T05:53:17.777Z,73.97
2018-12-05T05:55:47.285Z,73.97
2018-12-05T05:58:16.778Z,73.91
2018-12-05T06:00:46.256Z,74.53
2018-12-05T06:03:15.972Z,73.70
2018-12-05T06:05:45.448Z,73.29
2018-12-05T06:08:15.035Z,73.35
2018-12-05T06:10:44.627Z,73.38
2018-12-05T06:15:51.795Z,73.25
2018-12-05T06:18:21.328Z,73.25
2018-12-05T06:20:50.866Z,73.15
2018-12-05T06:23:20.341Z,73.23
2018-12-05T06:25:49.843Z,72.79
2018-12-05T06:28:19.366Z,72.81
2018-12-05T06:30:48.823Z,72.92
2018-12-05T06:33:18.377Z,72.73
2018-12-05T06:35:48.108Z,73.07
2018-12-05T06:38:17.614Z,72.36
2018-12-05T06:40:47.101Z,72.10
2018-12-05T06:43:16.638Z,72.57
2018-12-05T06:45:46.128Z,72.46
2018-12-05T06:48:15.618Z,72.61
2018-12-05T06:50:45.313Z,72.50
2018-12-05T06:53:14.823Z,72.46
2018-12-05T06:55:44.454Z,72.41
2018-12-05T06:58:13.937Z,72.05
2018-12-05T07:00:43.421Z,71.59
2018-12-05T07:03:12.921Z,71.97
2018-12-05T07:05:42.438Z,72.12
2018-12-05T07:08:11.993Z,72.45
2018-12-05T07:10:41.521Z,73.10
2018-12-05T07:13:10.998Z,73.16
2018-12-05T07:15:40.498Z,74.69
2018-12-05T07:18:09.980Z,76.93
2018-12-05T07:20:39.552Z,76.94
2018-12-05T07:23:09.052Z,77.47
2018-12-05T07:25:38.654Z,77.72
2018-12-05T07:28:08.128Z,77.50
2018-12-05T07:30:37.617Z,77.07
2018-12-05T07:33:06.582Z,76.67
2018-12-05T07:35:36.100Z,75.58
2018-12-05T07:38:05.700Z,75.32
2018-12-05T07:40:35.196Z,74.51
2018-12-05T07:43:04.807Z,74.11
2018-12-05T07:45:34.317Z,73.68
2018-12-05T07:48:03.829Z,72.92
2018-12-05T07:50:33.361Z,73.17
2018-12-05T07:53:03.007Z,72.25
2018-12-05T07:55:32.452Z,72.40
2018-12-05T07:58:01.954Z,72.10
2018-12-05T08:00:43.763Z,71.52
2018-12-05T08:03:24.781Z,71.71
2018-12-05T08:05:54.679Z,71.22
2018-12-05T08:08:24.152Z,71.29
2018-12-05T08:10:53.765Z,70.86
2018-12-05T08:13:23.281Z,70.59
2018-12-05T08:15:52.826Z,69.92
2018-12-05T08:18:22.273Z,69.41
2018-12-05T08:20:51.836Z,70.09
2018-12-05T08:23:21.300Z,68.95
2018-12-05T08:25:50.847Z,68.97
2018-12-05T08:28:20.484Z,68.88
2018-12-05T08:30:50.085Z,68.88
2018-12-05T08:33:19.554Z,68.69
2018-12-05T08:35:49.173Z,67.14
2018-12-05T08:38:18.668Z,68.21
2018-12-05T08:40:48.133Z,67.40
2018-12-05T08:43:17.746Z,67.18
2018-12-05T08:45:47.240Z,67.62
2018-12-05T08:48:16.725Z,67.30
2018-12-05T08:50:46.185Z,67.32
2018-12-05T08:53:15.729Z,67.31
2018-12-05T08:55:45.380Z,66.70
2018-12-05T08:58:14.842Z,66.16
2018-12-05T09:00:44.354Z,66.68
2018-12-05T09:03:13.824Z,66.33
2018-12-05T09:05:43.355Z,65.56
2018-12-05T09:08:12.950Z,65.56
2018-12-05T09:10:42.478Z,64.54
2018-12-05T09:13:12.007Z,63.32
2018-12-05T09:15:41.468Z,63.21
2018-12-05T09:18:11.014Z,62.57
2018-12-05T09:20:40.533Z,62.09
2018-12-05T09:23:10.003Z,61.26
2018-12-05T09:25:39.489Z,61.28
2018-12-05T09:28:09.013Z,60.73
2018-12-05T09:30:38.588Z,60.27
2018-12-05T09:33:08.058Z,59.74
2018-12-05T09:35:37.613Z,59.85
2018-12-05T09:38:07.118Z,59.43
2018-12-05T09:40:36.647Z,59.41
2018-12-05T09:43:06.172Z,59.44
2018-12-05T09:45:35.767Z,58.82
2018-12-05T09:48:05.376Z,58.97
2018-12-05T09:50:35.061Z,57.99
2018-12-05T09:53:04.628Z,58.25
2018-12-05T09:55:34.113Z,58.26
2018-12-05T09:58:03.769Z,57.91
2018-12-05T10:00:33.282Z,58.53
2018-12-05T10:03:02.814Z,57.56
2018-12-05T10:05:32.294Z,57.21
2018-12-05T10:08:01.801Z,56.97
2018-12-05T10:10:31.281Z,56.31
2018-12-05T10:13:00.782Z,56.57
2018-12-05T10:15:30.390Z,56.19
2018-12-05T10:17:59.895Z,56.57
2018-12-05T10:20:29.357Z,55.96
2018-12-05T10:25:38.647Z,54.83
2018-12-05T10:28:08.136Z,54.19
2018-12-05T10:30:37.621Z,54.11
2018-12-05T10:33:07.113Z,53.85
2018-12-05T10:35:36.675Z,53.83
2018-12-05T10:38:06.147Z,54.36
2018-12-05T10:40:35.716Z,53.71
2018-12-05T10:43:05.321Z,53.63
2018-12-05T10:45:34.905Z,53.52
2018-12-05T10:48:04.443Z,53.33
2018-12-05T10:50:33.974Z,53.99
2018-12-05T10:53:03.632Z,53.26
2018-12-05T10:55:33.150Z,54.02
2018-12-05T10:58:02.617Z,53.69
2018-12-05T11:00:37.287Z,53.67
2018-12-05T11:03:16.729Z,53.44
2018-12-05T11:05:51.361Z,53.57
2018-12-05T11:08:24.927Z,52.83
2018-12-05T11:10:59.707Z,53.31
2018-12-05T11:13:34.346Z,52.32
2018-12-05T11:18:13.227Z,51.89
2018-12-05T11:20:47.881Z,52.75
2018-12-05T11:23:21.444Z,52.96
2018-12-05T11:25:51.397Z,52.26
2018-12-05T11:28:20.930Z,51.49
2018-12-05T11:30:50.534Z,51.25
2018-12-05T11:33:20.048Z,51.28
2018-12-05T11:35:49.718Z,50.92
2018-12-05T11:38:19.181Z,51.78
2018-12-05T11:40:48.703Z,52.42
2018-12-05T11:43:18.212Z,52.13
2018-12-05T11:45:47.756Z,52.11
2018-12-05T11:48:17.265Z,51.67
2018-12-05T11:50:46.813Z,51.74
2018-12-05T11:53:16.316Z,50.55
2018-12-05T11:55:46.193Z,50.57
2018-12-05T11:58:15.737Z,51.06
2018-12-05T12:00:45.291Z,50.99
2018-12-05T12:03:14.813Z,51.11
2018-12-05T12:05:44.317Z,51.54
2018-12-05T12:08:13.813Z,50.85
2018-12-05T12:10:43.348Z,51.44
2018-12-05T12:13:12.815Z,51.58
2018-12-05T12:15:42.401Z,51.20
2018-12-05T12:18:11.930Z,51.58
2018-12-05T12:20:41.482Z,51.13
2018-12-05T12:23:11.153Z,50.72
2018-12-05T12:25:40.973Z,51.58
2018-12-05T12:28:10.530Z,51.33
2018-12-05T12:30:40.014Z,51.56
2018-12-05T12:33:09.779Z,51.71
2018-12-05T12:35:39.252Z,51.24
2018-12-05T12:38:08.895Z,51.84
2018-12-05T12:40:38.409Z,51.56
2018-12-05T12:43:07.968Z,51.89
2018-12-05T12:45:37.505Z,51.34
2018-12-05T12:48:07.276Z,50.15
2018-12-05T12:50:36.820Z,51.00
2018-12-05T12:53:06.300Z,50.65
2018-12-05T12:55:35.802Z,50.43
2018-12-05T12:58:05.328Z,50.43
2018-12-05T13:00:34.876Z,50.34
2018-12-05T13:03:04.345Z,50.10
2018-12-05T13:05:34.075Z,50.71
2018-12-05T13:08:03.586Z,50.11
2018-12-05T13:10:33.118Z,50.78
2018-12-05T13:13:02.594Z,50.43
2018-12-05T13:15:32.139Z,51.07
2018-12-05T13:18:01.634Z,50.28
2018-12-05T13:20:31.146Z,51.08
2018-12-05T13:23:00.624Z,51.58
2018-12-05T13:25:30.187Z,51.52
2018-12-05T13:27:59.652Z,51.54
2018-12-05T13:30:29.174Z,52.67
2018-12-05T13:32:58.666Z,52.86
2018-12-05T13:35:28.349Z,52.55
2018-12-05T13:37:57.851Z,52.60
2018-12-05T13:40:27.368Z,52.82
2018-12-05T13:42:56.892Z,52.77
2018-12-05T13:45:26.509Z,52.48
2018-12-05T13:47:56.006Z,52.28
2018-12-05T13:50:25.564Z,52.40
2018-12-05T13:52:55.019Z,53.22
2018-12-05T13:55:24.517Z,52.97
2018-12-05T13:57:54.096Z,53.20
2018-12-05T14:00:23.613Z,54.00
2018-12-05T14:02:53.093Z,53.70
2018-12-05T14:05:22.636Z,53.64
2018-12-05T14:07:52.125Z,54.13
2018-12-05T14:10:21.634Z,54.15
2018-12-05T14:12:51.132Z,54.52
2018-12-05T14:15:20.669Z,54.18
2018-12-05T14:17:50.476Z,54.51
2018-12-05T14:20:20.050Z,54.81
2018-12-05T14:22:49.520Z,54.50
2018-12-05T14:25:19.097Z,54.48
2018-12-05T14:27:48.560Z,54.87
2018-12-05T14:30:18.073Z,55.46
2018-12-05T14:32:56.658Z,55.07
2018-12-05T14:35:35.397Z,54.25
2018-12-05T14:38:05.141Z,54.98
2018-12-05T14:40:34.598Z,55.35
2018-12-05T14:43:04.101Z,55.60
2018-12-05T14:45:33.626Z,55.09
2018-12-05T14:48:03.081Z,55.58
2018-12-05T14:50:32.705Z,55.72
2018-12-05T14:53:02.238Z,55.94
2018-12-05T14:55:31.799Z,56.09
2018-12-05T14:58:01.495Z,56.26
2018-12-05T15:00:30.986Z,55.92
2018-12-05T15:03:00.569Z,56.19
2018-12-05T15:05:30.060Z,56.75
2018-12-05T15:07:59.609Z,56.68
2018-12-05T15:10:29.133Z,57.01
2018-12-05T15:12:58.705Z,57.22
2018-12-05T15:15:28.218Z,56.68
2018-12-05T15:17:57.801Z,57.08
2018-12-05T15:20:27.274Z,57.35
2018-12-05T15:22:56.819Z,57.29
2018-12-05T15:25:26.308Z,57.60
2018-12-05T15:27:55.842Z,57.55
2018-12-05T15:30:25.302Z,57.83
2018-12-05T15:32:54.849Z,57.46
2018-12-05T15:35:24.307Z,57.72
2018-12-05T15:37:53.809Z,57.56
2018-12-05T15:40:23.267Z,57.38
2018-12-05T15:42:52.769Z,57.11
2018-12-05T15:45:22.303Z,57.57
2018-12-05T15:47:51.841Z,57.70
2018-12-05T15:50:21.345Z,57.30
2018-12-05T15:52:50.810Z,57.30
2018-12-05T15:55:20.297Z,56.88
2018-12-05T15:57:49.754Z,56.39
2018-12-05T16:00:19.244Z,57.06
2018-12-05T16:02:48.714Z,56.98
2018-12-05T16:05:18.205Z,56.88
2018-12-05T16:07:47.684Z,56.78
2018-12-05T16:10:17.205Z,56.70
2018-12-05T16:12:46.652Z,56.50
2018-12-05T16:15:16.144Z,56.49
2018-12-05T16:17:45.592Z,56.64
2018-12-05T16:20:15.069Z,56.96
2018-12-05T16:22:44.549Z,56.28
2018-12-05T16:25:14.053Z,56.88
2018-12-05T16:27:43.536Z,55.86
2018-12-05T16:30:13.053Z,56.06
2018-12-05T16:32:42.512Z,56.32
2018-12-05T16:35:11.980Z,56.01
2018-12-05T16:37:41.418Z,55.91
2018-12-05T16:40:10.912Z,56.27
2018-12-05T16:42:40.361Z,56.03
2018-12-05T16:45:09.857Z,56.78
2018-12-05T16:47:39.303Z,56.63
2018-12-05T16:50:08.950Z,56.33
2018-12-05T16:52:38.436Z,56.53
2018-12-05T16:55:07.909Z,56.43
2018-12-05T16:57:37.393Z,56.54
2018-12-05T17:00:08.826Z,56.20
2018-12-05T17:02:38.350Z,55.83
2018-12-05T17:05:08.042Z,55.97
2018-12-05T17:07:37.528Z,55.38
2018-12-05T17:10:07.404Z,55.35
2018-12-05T17:12:36.941Z,55.87
2018-12-05T17:15:06.616Z,55.54
2018-12-05T17:17:36.091Z,55.36
2018-12-05T17:20:06.172Z,54.90
2018-12-05T17:22:35.610Z,55.19
2018-12-05T17:25:05.414Z,55.18
2018-12-05T17:27:34.863Z,54.76
2018-12-05T17:30:04.676Z,55.18
2018-12-05T17:32:34.160Z,54.74
2018-12-05T17:35:03.855Z,54.25
2018-12-05T17:37:33.562Z,54.58
2018-12-05T17:40:03.026Z,53.68
2018-12-05T17:42:32.527Z,53.55
2018-12-05T17:45:01.997Z,53.99
2018-12-05T17:47:31.514Z,54.17
2018-12-05T17:50:00.973Z,54.19
2018-12-05T17:52:30.561Z,53.91
2018-12-05T17:55:00.010Z,54.26
2018-12-05T17:57:29.498Z,54.04
2018-12-05T17:59:58.978Z,54.02
2018-12-05T18:02:28.466Z,53.90
2018-12-05T18:04:57.921Z,53.84
2018-12-05T18:07:28.142Z,53.33
2018-12-05T18:09:57.701Z,53.52
2018-12-05T18:12:27.201Z,53.45
2018-12-05T18:14:56.674Z,53.28
2018-12-05T18:17:26.209Z,52.88
2018-12-05T18:19:55.677Z,52.69
2018-12-05T18:22:25.169Z,53.59
2018-12-05T18:24:54.772Z,52.60
2018-12-05T18:27:24.256Z,52.99
2018-12-05T18:29:53.754Z,53.34
2018-12-05T18:32:23.256Z,53.24
2018-12-05T18:34:52.736Z,52.93
2018-12-05T18:37:22.220Z,52.27
2018-12-05T18:39:51.708Z,52.00
2018-12-05T18:42:21.153Z,52.09
2018-12-05T18:44:50.716Z,51.95
2018-12-05T18:47:20.197Z,51.87
2018-12-05T18:49:49.746Z,51.69
2018-12-05T18:52:19.229Z,52.62
2018-12-05T18:54:48.737Z,52.14
2018-12-05T18:57:18.233Z,51.38
2018-12-05T18:59:47.717Z,51.96
2018-12-05T19:02:17.173Z,51.58
2018-12-05T19:04:46.623Z,51.42
2018-12-05T19:07:16.105Z,51.85
2018-12-05T19:09:45.582Z,51.50
2018-12-05T19:12:15.053Z,51.73
2018-12-05T19:14:45.621Z,51.22
2018-12-05T19:17:15.149Z,51.29
2018-12-05T19:19:44.588Z,51.42
2018-12-05T19:22:14.082Z,51.69
2018-12-05T19:24:43.513Z,51.39
2018-12-05T19:27:13.027Z,51.59
2018-12-05T19:29:42.481Z,51.58
2018-12-05T19:32:12.865Z,51.31
2018-12-05T19:34:42.313Z,51.21
2018-12-05T19:37:12.549Z,51.46
2018-12-05T19:39:41.993Z,51.16
2018-12-05T19:42:11.515Z,51.55
2018-12-05T19:44:40.978Z,51.45
2018-12-05T19:47:10.526Z,51.25
2018-12-05T19:49:39.970Z,51.37
2018-12-05T19:52:09.453Z,51.50
2018-12-05T19:54:38.898Z,51.30
2018-12-05T19:57:08.397Z,50.97
2018-12-05T19:59:37.880Z,51.01
2018-12-05T20:02:07.327Z,51.73
2018-12-05T20:04:36.807Z,51.00
2018-12-05T20:07:06.265Z,51.48
2018-12-05T20:09:35.746Z,51.08
2018-12-05T20:12:05.246Z,51.73
2018-12-05T20:14:34.766Z,51.55
2018-12-05T20:17:04.811Z,51.62
2018-12-05T20:19:34.324Z,51.29
2018-12-05T20:22:03.833Z,51.40
2018-12-05T20:24:33.285Z,51.37
2018-12-05T20:27:03.773Z,50.76
2018-12-05T20:29:33.265Z,50.76
2018-12-05T20:32:02.712Z,51.20
2018-12-05T20:34:32.245Z,51.81
2018-12-05T20:37:01.699Z,51.78
2018-12-05T20:39:31.178Z,51.58
2018-12-05T20:42:03.255Z,51.03
2018-12-05T20:44:32.758Z,51.70
2018-12-05T20:47:02.251Z,51.66
2018-12-05T20:49:31.783Z,51.61
2018-12-05T20:52:01.253Z,51.58
2018-12-05T20:54:30.749Z,51.47
2018-12-05T20:57:00.213Z,51.63
2018-12-05T20:59:29.692Z,51.01
2018-12-05T21:01:59.170Z,50.85
2018-12-05T21:04:28.647Z,51.40
2018-12-05T21:06:58.136Z,51.51
2018-12-05T21:09:27.658Z,51.16
2018-12-05T21:11:57.120Z,50.80
2018-12-05T21:14:26.596Z,51.13
2018-12-05T21:16:56.123Z,51.04
2018-12-05T21:19:25.592Z,50.90
2018-12-05T21:21:55.101Z,50.28
2018-12-05T21:24:24.547Z,50.69
2018-12-05T21:26:54.049Z,50.84
2018-12-05T21:29:23.492Z,51.43
2018-12-05T21:31:52.984Z,51.68
2018-12-05T21:34:22.480Z,51.06
2018-12-05T21:36:51.964Z,50.75
2018-12-05T21:39:21.498Z,51.12
2018-12-05T21:41:52.050Z,51.28
2018-12-05T21:44:21.496Z,50.58
2018-12-05T21:46:51.333Z,51.05
2018-12-05T21:49:20.866Z,50.88
2018-12-05T21:51:50.350Z,51.34
2018-12-05T21:54:19.803Z,51.13
2018-12-05T21:56:49.263Z,51.14
2018-12-05T21:59:19.083Z,51.47
2018-12-05T22:01:48.525Z,51.55
2018-12-05T22:04:18.025Z,51.37
2018-12-05T22:06:47.489Z,51.16
2018-12-05T22:09:16.986Z,51.18
2018-12-05T22:11:46.810Z,51.28
2018-12-05T22:14:16.389Z,51.70
2018-12-05T22:16:45.833Z,51.43
2018-12-05T22:19:15.313Z,51.68
2018-12-05T22:21:44.801Z,51.08
2018-12-05T22:24:14.269Z,51.21
2018-12-05T22:26:43.765Z,51.30
2018-12-05T22:29:13.271Z,51.40
2018-12-05T22:31:42.830Z,51.15
2018-12-05T22:34:12.365Z,51.27
2018-12-05T22:36:41.873Z,51.22
2018-12-05T22:39:11.327Z,52.27
2018-12-05T22:41:40.820Z,51.35
2018-12-05T22:44:10.300Z,51.73
2018-12-05T22:46:39.797Z,51.75
2018-12-05T22:49:09.245Z,51.43
2018-12-05T22:51:38.724Z,51.04
2018-12-05T22:54:08.185Z,51.37
2018-12-05T22:56:37.701Z,51.57
2018-12-05T22:59:07.210Z,52.04
2018-12-05T23:01:38.744Z,51.84
2018-12-05T23:04:08.254Z,51.92
2018-12-05T23:06:37.701Z,51.96
2018-12-05T23:09:07.246Z,51.61
2018-12-05T23:11:36.733Z,51.54
2018-12-05T23:14:06.225Z,52.13
2018-12-05T23:16:35.710Z,51.50
2018-12-05T23:19:05.376Z,52.05
2018-12-05T23:21:34.884Z,52.09
2018-12-05T23:24:04.382Z,52.96
2018-12-05T23:26:33.899Z,52.09
2018-12-05T23:29:03.368Z,52.44
2018-12-05T23:31:32.901Z,53.02
2018-12-05T23:34:02.388Z,52.99
2018-12-05T23:36:31.823Z,52.62
2018-12-05T23:39:01.321Z,52.45
2018-12-05T23:41:30.764Z,53.00
2018-12-05T23:44:00.269Z,52.73
2018-12-05T23:46:29.725Z,52.71
2018-12-05T23:48:59.200Z,53.09
2018-12-05T23:51:28.686Z,53.24
2018-12-05T23:53:58.137Z,53.20
2018-12-05T23:56:27.629Z,53.43
2018-12-05T23:58:57.078Z,53.40
